University of Illinois Willard Airport
KCMI : now visible

Airfield :











YOU CAN JOIN US ON...

 
LOGIN :

Register | Disclaimer

   EN    FR    IT 

 









Legend :    VFR   Marginal VFR   IFR   Intensive IFR   Very Intensive IFR
Visi :
Ceiling :
>= 8 km
>= 3000ft
5 to 8 km
1000 to 3000 ft
1500m to 5 km
500 to 1000 ft
800 to 1500m
200 to 500 ft
< 800m
< 200 ft
Symbols :   Thunderstorms  Fog  Heavy snow  Heavy precipitations  Wind > 20 kt






- Airport Elevation : 755 ft
- IATA code : CMI


KCMI - University of Illinois Willard

CURRENT METAR :
  • 122053Z 10SM CLR 06/M01 A3018 RMK AO2 SLP227 T00561011 56033

EXPIRED METARs :
  • 121953Z 19017G25KT 10SM CLR 06/M02 A3020 RMK AO2 PK WND 19028/1855 SLP235 T00611017
  • 121853Z 18018G28KT 10SM CLR 06/M01 A3023 RMK AO2 PK WND 19032/1809 SLP244 T00611011

TAF KCMI
Valid from the 12 at 18:00 until the 13 at 18:00 UTC


121720Z 1218/1318 19020G28KT P6SM BKN250
FM122300 19013G21KT P6SM SCT250
FM130100 18010KT P6SM SCT250
FM131200 18006KT P6SM SCT080 BKN150



MET'MAP, your aeronautical weather chart ! - Copyright ORBIFLY December 2007 - Disclaimer

ORBIFLY MET'MAP TEAM :

Programming & Development : Alexandra Zaïnal
Concept & original design : Baudouin d'Aumeries
Assistance for programming : Marc-Olivier Méhu
Technical & hardware support : Manuel Goepfert

Contact : metmap@orbifly.com




SOURCES & CREDITS :

   NOAA       Earth
Advisory